Accueil
METAR-TAF:

METAR-TAF

Aéroports :

Brescia Ghedi, Italie

latitude: 45-25N, longitude: 010-17E, altitude: 102 m

Observation

Le bulletin a été fait il y a 15 minutes, à 13:55 UTC
Vent 6 kt de ouest
Température 9°C
Humidité 76%
Pression 1019 hPa
Visibilité: 3000 m
Quelques nuages à une hauteur de 3000 ft
brume

METAR: LIPL 261355Z 28006KT 3000 BR FEW030 09/05 Q1019 RMK FEW VIS MIN 3000 WIND THR31 /////KT WIND THR13 26005KT YLO

Heure: 15:10 (14:10 UTC)

Prévision

Le bulletin a été fait il y a 3 heures et 10 minutes, à 11:00 UTC
Prévision valable du 26 à 12 UTC au 26 à 21 UTC
Vent 4 kt de est/nord-est
Visibilité: 3000 m
Nuages épars à une hauteur de 1500 ft
brume
Evoluant progressivement
du 26 à 17 UTC au 26 à 20 UTC
Visibilité: 1500 m
Nuages épars à une hauteur de 6000 ft
brume

TAF: LIPL 261100Z 2612/2621 06004KT 3000 BR SCT015 BECMG 2617/2620 1500 BR SCT060

Observations et prévisions météorologiques de plus de 4000 aéroports (messages METAR et TAF).

Les stations disponibles sont représentées par des disques jaunes et rouges sur la carte.

Passer la souris dessus pour voir le nom de la station.

Cliquer dessus pour voir les observations et prévisions météorologiques.

Pour changer de carte: cliquez sur les boutons verts avec une croix noire pour zoomer, sur le bouton vert avec un tiret pour effectuer un zoom arrière, ou sur les flèches vertes pour les cartes adjacentes.


METAR-TAF: